sensor_id;sensor_type;location;lat;lon;timestamp;temperature;humidity
77865;DHT22;67061;48.524;9.040;2024-01-07T00:00:40;3.10;99.90
77865;DHT22;67061;48.524;9.040;2024-01-07T00:03:07;3.10;99.90
77865;DHT22;67061;48.524;9.040;2024-01-07T00:05:36;3.00;99.90
77865;DHT22;67061;48.524;9.040;2024-01-07T00:08:05;3.00;99.90
77865;DHT22;67061;48.524;9.040;2024-01-07T00:10:32;3.00;99.90
77865;DHT22;67061;48.524;9.040;2024-01-07T00:12:58;3.00;99.90
77865;DHT22;67061;48.524;9.040;2024-01-07T00:15:26;3.00;99.90
77865;DHT22;67061;48.524;9.040;2024-01-07T00:17:53;3.00;99.90
77865;DHT22;67061;48.524;9.040;2024-01-07T00:20:20;3.00;99.90
77865;DHT22;67061;48.524;9.040;2024-01-07T00:22:46;2.90;99.90
77865;DHT22;67061;48.524;9.040;2024-01-07T00:25:14;2.90;99.90
77865;DHT22;67061;48.524;9.040;2024-01-07T00:27:41;2.90;99.90
77865;DHT22;67061;48.524;9.040;2024-01-07T00:30:08;2.90;99.90
77865;DHT22;67061;48.524;9.040;2024-01-07T00:32:35;2.90;99.90
77865;DHT22;67061;48.524;9.040;2024-01-07T00:35:02;2.90;99.90
77865;DHT22;67061;48.524;9.040;2024-01-07T00:37:29;2.80;99.90
77865;DHT22;67061;48.524;9.040;2024-01-07T00:39:56;2.80;99.90
77865;DHT22;67061;48.524;9.040;2024-01-07T00:42:24;2.80;99.90
77865;DHT22;67061;48.524;9.040;2024-01-07T00:44:51;2.80;99.90
77865;DHT22;67061;48.524;9.040;2024-01-07T00:47:18;2.80;99.90
77865;DHT22;67061;48.524;9.040;2024-01-07T00:49:45;2.80;99.90
77865;DHT22;67061;48.524;9.040;2024-01-07T00:52:11;2.80;99.90
77865;DHT22;67061;48.524;9.040;2024-01-07T00:54:38;2.80;99.90
77865;DHT22;67061;48.524;9.040;2024-01-07T00:57:05;2.80;99.90
77865;DHT22;67061;48.524;9.040;2024-01-07T00:59:33;2.80;99.90
77865;DHT22;67061;48.524;9.040;2024-01-07T01:02:00;2.70;99.90
77865;DHT22;67061;48.524;9.040;2024-01-07T01:04:27;2.70;99.90
77865;DHT22;67061;48.524;9.040;2024-01-07T01:06:54;2.70;99.90
77865;DHT22;67061;48.524;9.040;2024-01-07T01:09:21;2.70;99.90
77865;DHT22;67061;48.524;9.040;2024-01-07T01:11:48;2.70;99.90
77865;DHT22;67061;48.524;9.040;2024-01-07T01:14:15;2.70;99.90
77865;DHT22;67061;48.524;9.040;2024-01-07T01:16:43;2.60;99.90
77865;DHT22;67061;48.524;9.040;2024-01-07T01:19:10;2.60;99.90
77865;DHT22;67061;48.524;9.040;2024-01-07T01:21:37;2.50;99.90
77865;DHT22;67061;48.524;9.040;2024-01-07T01:24:04;2.50;99.90
77865;DHT22;67061;48.524;9.040;2024-01-07T01:26:31;2.50;99.90
77865;DHT22;67061;48.524;9.040;2024-01-07T01:28:58;2.50;99.90
77865;DHT22;67061;48.524;9.040;2024-01-07T01:31:25;2.50;99.90
77865;DHT22;67061;48.524;9.040;2024-01-07T01:33:53;2.40;99.90
77865;DHT22;67061;48.524;9.040;2024-01-07T01:36:20;2.50;99.90
77865;DHT22;67061;48.524;9.040;2024-01-07T01:38:47;2.40;99.90
77865;DHT22;67061;48.524;9.040;2024-01-07T01:41:14;2.40;99.90
77865;DHT22;67061;48.524;9.040;2024-01-07T01:43:41;2.50;99.90
77865;DHT22;67061;48.524;9.040;2024-01-07T01:46:08;2.50;99.90
77865;DHT22;67061;48.524;9.040;2024-01-07T01:48:36;2.50;99.90
77865;DHT22;67061;48.524;9.040;2024-01-07T01:51:04;2.50;99.90
77865;DHT22;67061;48.524;9.040;2024-01-07T01:53:32;2.50;99.90
77865;DHT22;67061;48.524;9.040;2024-01-07T01:56:01;2.50;99.90
77865;DHT22;67061;48.524;9.040;2024-01-07T01:58:28;2.50;99.90
77865;DHT22;67061;48.524;9.040;2024-01-07T02:00:56;2.50;99.90
77865;DHT22;67061;48.524;9.040;2024-01-07T02:03:23;2.50;99.90
77865;DHT22;67061;48.524;9.040;2024-01-07T02:05:50;2.60;99.90
77865;DHT22;67061;48.524;9.040;2024-01-07T02:08:18;2.60;99.90
77865;DHT22;67061;48.524;9.040;2024-01-07T02:10:45;2.60;99.90
77865;DHT22;67061;48.524;9.040;2024-01-07T02:13:12;2.60;99.90
77865;DHT22;67061;48.524;9.040;2024-01-07T02:15:39;2.50;99.90
77865;DHT22;67061;48.524;9.040;2024-01-07T02:18:06;2.60;99.90
77865;DHT22;67061;48.524;9.040;2024-01-07T02:20:33;2.60;99.90
77865;DHT22;67061;48.524;9.040;2024-01-07T02:23:01;2.60;99.90
77865;DHT22;67061;48.524;9.040;2024-01-07T02:25:34;2.60;99.90
77865;DHT22;67061;48.524;9.040;2024-01-07T02:28:00;2.70;99.90
77865;DHT22;67061;48.524;9.040;2024-01-07T02:30:27;2.70;99.90
77865;DHT22;67061;48.524;9.040;2024-01-07T02:32:55;2.60;99.90
77865;DHT22;67061;48.524;9.040;2024-01-07T02:35:21;2.70;99.90
77865;DHT22;67061;48.524;9.040;2024-01-07T02:37:48;2.70;99.90
77865;DHT22;67061;48.524;9.040;2024-01-07T02:40:15;2.70;99.90
77865;DHT22;67061;48.524;9.040;2024-01-07T02:42:43;2.80;99.90
77865;DHT22;67061;48.524;9.040;2024-01-07T02:45:10;2.80;99.90
77865;DHT22;67061;48.524;9.040;2024-01-07T02:47:37;2.80;99.90
77865;DHT22;67061;48.524;9.040;2024-01-07T02:50:05;2.80;99.90
77865;DHT22;67061;48.524;9.040;2024-01-07T02:52:32;2.90;99.90
77865;DHT22;67061;48.524;9.040;2024-01-07T02:54:59;2.90;99.90
77865;DHT22;67061;48.524;9.040;2024-01-07T02:57:27;2.90;99.90
77865;DHT22;67061;48.524;9.040;2024-01-07T02:59:55;3.00;99.90
77865;DHT22;67061;48.524;9.040;2024-01-07T03:02:22;3.00;99.90
77865;DHT22;67061;48.524;9.040;2024-01-07T03:04:49;3.00;99.90
77865;DHT22;67061;48.524;9.040;2024-01-07T03:07:16;3.00;99.90
77865;DHT22;67061;48.524;9.040;2024-01-07T03:09:43;3.00;99.90
77865;DHT22;67061;48.524;9.040;2024-01-07T03:12:09;3.10;99.90
77865;DHT22;67061;48.524;9.040;2024-01-07T03:14:36;3.10;99.90
77865;DHT22;67061;48.524;9.040;2024-01-07T03:17:05;3.10;99.90
77865;DHT22;67061;48.524;9.040;2024-01-07T03:19:33;3.10;99.90
77865;DHT22;67061;48.524;9.040;2024-01-07T03:22:00;3.10;99.90
77865;DHT22;67061;48.524;9.040;2024-01-07T03:24:27;3.20;99.90
77865;DHT22;67061;48.524;9.040;2024-01-07T03:26:54;3.20;99.90
77865;DHT22;67061;48.524;9.040;2024-01-07T03:29:21;3.20;99.90
77865;DHT22;67061;48.524;9.040;2024-01-07T03:31:48;3.20;99.90
77865;DHT22;67061;48.524;9.040;2024-01-07T03:34:17;3.20;99.90
77865;DHT22;67061;48.524;9.040;2024-01-07T03:36:44;3.20;99.90
77865;DHT22;67061;48.524;9.040;2024-01-07T03:39:11;3.20;99.90
77865;DHT22;67061;48.524;9.040;2024-01-07T03:41:38;3.20;99.90
77865;DHT22;67061;48.524;9.040;2024-01-07T03:44:05;3.10;99.90
77865;DHT22;67061;48.524;9.040;2024-01-07T03:46:32;3.10;99.90
77865;DHT22;67061;48.524;9.040;2024-01-07T03:48:58;3.10;99.90
77865;DHT22;67061;48.524;9.040;2024-01-07T03:51:27;3.10;99.90
77865;DHT22;67061;48.524;9.040;2024-01-07T03:53:54;3.10;99.90
77865;DHT22;67061;48.524;9.040;2024-01-07T03:56:20;3.10;99.90
77865;DHT22;67061;48.524;9.040;2024-01-07T03:58:47;3.10;99.90
77865;DHT22;67061;48.524;9.040;2024-01-07T04:01:16;3.10;99.90
77865;DHT22;67061;48.524;9.040;2024-01-07T04:03:43;3.10;99.90
77865;DHT22;67061;48.524;9.040;2024-01-07T04:06:10;3.10;99.90
77865;DHT22;67061;48.524;9.040;2024-01-07T04:08:38;3.10;99.90
77865;DHT22;67061;48.524;9.040;2024-01-07T04:11:05;3.10;99.90
77865;DHT22;67061;48.524;9.040;2024-01-07T04:13:32;3.10;99.90
77865;DHT22;67061;48.524;9.040;2024-01-07T04:15:59;3.10;99.90
77865;DHT22;67061;48.524;9.040;2024-01-07T04:18:26;3.10;99.90
77865;DHT22;67061;48.524;9.040;2024-01-07T04:20:53;3.10;99.90
77865;DHT22;67061;48.524;9.040;2024-01-07T04:23:19;3.10;99.90
77865;DHT22;67061;48.524;9.040;2024-01-07T04:25:48;3.10;99.90
77865;DHT22;67061;48.524;9.040;2024-01-07T04:28:14;3.10;99.90
77865;DHT22;67061;48.524;9.040;2024-01-07T04:30:41;3.10;99.90
77865;DHT22;67061;48.524;9.040;2024-01-07T04:33:08;3.10;99.90
77865;DHT22;67061;48.524;9.040;2024-01-07T04:35:35;3.10;99.90
77865;DHT22;67061;48.524;9.040;2024-01-07T04:38:02;3.10;99.90
77865;DHT22;67061;48.524;9.040;2024-01-07T04:40:29;3.10;99.90
77865;DHT22;67061;48.524;9.040;2024-01-07T04:42:57;3.10;99.90
77865;DHT22;67061;48.524;9.040;2024-01-07T04:45:24;3.10;99.90
77865;DHT22;67061;48.524;9.040;2024-01-07T04:47:51;3.00;99.90
77865;DHT22;67061;48.524;9.040;2024-01-07T04:50:18;3.00;99.90
77865;DHT22;67061;48.524;9.040;2024-01-07T04:52:45;3.00;99.90
77865;DHT22;67061;48.524;9.040;2024-01-07T04:55:12;3.00;99.90
77865;DHT22;67061;48.524;9.040;2024-01-07T04:57:39;3.00;99.90
77865;DHT22;67061;48.524;9.040;2024-01-07T05:00:09;2.90;99.90
77865;DHT22;67061;48.524;9.040;2024-01-07T05:02:36;3.00;99.90
77865;DHT22;67061;48.524;9.040;2024-01-07T05:05:02;3.00;99.90
77865;DHT22;67061;48.524;9.040;2024-01-07T05:07:28;3.00;99.90
77865;DHT22;67061;48.524;9.040;2024-01-07T05:09:55;3.00;99.90
77865;DHT22;67061;48.524;9.040;2024-01-07T05:12:22;3.10;99.90
77865;DHT22;67061;48.524;9.040;2024-01-07T05:14:50;3.00;99.90
77865;DHT22;67061;48.524;9.040;2024-01-07T05:17:19;3.10;99.90
77865;DHT22;67061;48.524;9.040;2024-01-07T05:19:45;3.00;99.90
77865;DHT22;67061;48.524;9.040;2024-01-07T05:22:12;3.00;99.90
77865;DHT22;67061;48.524;9.040;2024-01-07T05:24:39;3.10;99.90
77865;DHT22;67061;48.524;9.040;2024-01-07T05:27:06;3.10;99.90
77865;DHT22;67061;48.524;9.040;2024-01-07T05:29:33;3.10;99.90
77865;DHT22;67061;48.524;9.040;2024-01-07T05:32:00;3.10;99.90
77865;DHT22;67061;48.524;9.040;2024-01-07T05:34:29;3.10;99.90
77865;DHT22;67061;48.524;9.040;2024-01-07T05:36:56;3.10;99.90
77865;DHT22;67061;48.524;9.040;2024-01-07T05:39:23;3.10;99.90
77865;DHT22;67061;48.524;9.040;2024-01-07T05:41:50;3.10;99.90
77865;DHT22;67061;48.524;9.040;2024-01-07T05:44:17;3.10;99.90
77865;DHT22;67061;48.524;9.040;2024-01-07T05:46:44;3.10;99.90
77865;DHT22;67061;48.524;9.040;2024-01-07T05:49:11;3.10;99.90
77865;DHT22;67061;48.524;9.040;2024-01-07T05:51:40;3.10;99.90
77865;DHT22;67061;48.524;9.040;2024-01-07T05:54:07;3.10;99.90
77865;DHT22;67061;48.524;9.040;2024-01-07T05:56:38;3.10;99.90
77865;DHT22;67061;48.524;9.040;2024-01-07T05:59:06;3.10;99.90
77865;DHT22;67061;48.524;9.040;2024-01-07T06:01:32;3.10;99.90
77865;DHT22;67061;48.524;9.040;2024-01-07T06:04:00;3.10;99.90
77865;DHT22;67061;48.524;9.040;2024-01-07T06:06:27;3.10;99.90
77865;DHT22;67061;48.524;9.040;2024-01-07T06:08:55;3.10;99.90
77865;DHT22;67061;48.524;9.040;2024-01-07T06:11:22;3.10;99.90
77865;DHT22;67061;48.524;9.040;2024-01-07T06:13:49;3.10;99.90
77865;DHT22;67061;48.524;9.040;2024-01-07T06:16:16;3.10;99.90
77865;DHT22;67061;48.524;9.040;2024-01-07T06:18:43;3.10;99.90
77865;DHT22;67061;48.524;9.040;2024-01-07T06:21:10;3.10;99.90
77865;DHT22;67061;48.524;9.040;2024-01-07T06:23:37;3.10;99.90
77865;DHT22;67061;48.524;9.040;2024-01-07T06:26:05;3.00;99.90
77865;DHT22;67061;48.524;9.040;2024-01-07T06:28:32;3.00;99.90
77865;DHT22;67061;48.524;9.040;2024-01-07T06:30:59;3.00;99.90
77865;DHT22;67061;48.524;9.040;2024-01-07T06:33:29;3.00;99.90
77865;DHT22;67061;48.524;9.040;2024-01-07T06:35:55;3.00;99.90
77865;DHT22;67061;48.524;9.040;2024-01-07T06:38:22;3.00;99.90
77865;DHT22;67061;48.524;9.040;2024-01-07T06:40:49;3.00;99.90
77865;DHT22;67061;48.524;9.040;2024-01-07T06:43:18;3.00;99.90
77865;DHT22;67061;48.524;9.040;2024-01-07T06:45:45;3.00;99.90
77865;DHT22;67061;48.524;9.040;2024-01-07T06:48:12;3.00;99.90
77865;DHT22;67061;48.524;9.040;2024-01-07T06:50:38;3.00;99.90
77865;DHT22;67061;48.524;9.040;2024-01-07T06:53:05;3.00;99.90
77865;DHT22;67061;48.524;9.040;2024-01-07T06:55:32;3.00;99.90
77865;DHT22;67061;48.524;9.040;2024-01-07T06:57:59;3.00;99.90
77865;DHT22;67061;48.524;9.040;2024-01-07T07:00:27;3.00;99.90
77865;DHT22;67061;48.524;9.040;2024-01-07T07:02:54;2.90;99.90
77865;DHT22;67061;48.524;9.040;2024-01-07T07:05:21;2.90;99.90
77865;DHT22;67061;48.524;9.040;2024-01-07T07:07:48;2.90;99.90
77865;DHT22;67061;48.524;9.040;2024-01-07T07:10:15;2.90;99.90
77865;DHT22;67061;48.524;9.040;2024-01-07T07:12:42;2.90;99.90
77865;DHT22;67061;48.524;9.040;2024-01-07T07:15:09;2.90;99.90
77865;DHT22;67061;48.524;9.040;2024-01-07T07:17:38;2.90;99.90
77865;DHT22;67061;48.524;9.040;2024-01-07T07:20:06;2.80;99.90
77865;DHT22;67061;48.524;9.040;2024-01-07T07:22:33;2.80;99.90
77865;DHT22;67061;48.524;9.040;2024-01-07T07:25:00;2.80;99.90
77865;DHT22;67061;48.524;9.040;2024-01-07T07:27:27;2.80;99.90
77865;DHT22;67061;48.524;9.040;2024-01-07T07:29:55;2.80;99.90
77865;DHT22;67061;48.524;9.040;2024-01-07T07:32:21;2.80;99.90
77865;DHT22;67061;48.524;9.040;2024-01-07T07:34:50;2.80;99.90
77865;DHT22;67061;48.524;9.040;2024-01-07T07:37:16;2.80;99.90
77865;DHT22;67061;48.524;9.040;2024-01-07T07:39:43;2.80;99.90
77865;DHT22;67061;48.524;9.040;2024-01-07T07:42:10;2.80;99.90
77865;DHT22;67061;48.524;9.040;2024-01-07T07:44:37;2.80;99.90
77865;DHT22;67061;48.524;9.040;2024-01-07T07:47:05;2.80;99.90
77865;DHT22;67061;48.524;9.040;2024-01-07T07:49:33;2.80;99.90
77865;DHT22;67061;48.524;9.040;2024-01-07T07:52:02;2.80;99.90
77865;DHT22;67061;48.524;9.040;2024-01-07T07:54:29;2.80;99.90
77865;DHT22;67061;48.524;9.040;2024-01-07T07:56:56;2.80;99.90
77865;DHT22;67061;48.524;9.040;2024-01-07T07:59:23;2.80;99.90
77865;DHT22;67061;48.524;9.040;2024-01-07T08:01:50;2.80;99.90
77865;DHT22;67061;48.524;9.040;2024-01-07T08:04:17;2.80;99.90
77865;DHT22;67061;48.524;9.040;2024-01-07T08:06:44;2.80;99.90
77865;DHT22;67061;48.524;9.040;2024-01-07T08:09:13;2.80;99.90
77865;DHT22;67061;48.524;9.040;2024-01-07T08:11:39;2.80;99.90
77865;DHT22;67061;48.524;9.040;2024-01-07T08:14:06;2.80;99.90
77865;DHT22;67061;48.524;9.040;2024-01-07T08:16:34;2.80;99.90
77865;DHT22;67061;48.524;9.040;2024-01-07T08:19:01;2.70;99.90
77865;DHT22;67061;48.524;9.040;2024-01-07T08:21:28;2.70;99.90
77865;DHT22;67061;48.524;9.040;2024-01-07T08:23:55;2.70;99.90
77865;DHT22;67061;48.524;9.040;2024-01-07T08:26:23;2.70;99.90
77865;DHT22;67061;48.524;9.040;2024-01-07T08:28:50;2.70;99.90
77865;DHT22;67061;48.524;9.040;2024-01-07T08:31:18;2.70;99.90
77865;DHT22;67061;48.524;9.040;2024-01-07T08:33:45;2.70;99.90
77865;DHT22;67061;48.524;9.040;2024-01-07T08:36:11;2.60;99.90
77865;DHT22;67061;48.524;9.040;2024-01-07T08:38:38;2.70;99.90
77865;DHT22;67061;48.524;9.040;2024-01-07T08:41:05;2.60;99.90
77865;DHT22;67061;48.524;9.040;2024-01-07T08:43:34;2.50;99.90
77865;DHT22;67061;48.524;9.040;2024-01-07T08:46:03;2.50;99.90
77865;DHT22;67061;48.524;9.040;2024-01-07T08:48:31;2.60;99.90
77865;DHT22;67061;48.524;9.040;2024-01-07T08:50:58;2.60;99.90
77865;DHT22;67061;48.524;9.040;2024-01-07T08:53:24;2.50;99.90
77865;DHT22;67061;48.524;9.040;2024-01-07T08:55:51;2.60;99.90
77865;DHT22;67061;48.524;9.040;2024-01-07T08:58:18;2.60;99.90
77865;DHT22;67061;48.524;9.040;2024-01-07T09:00:47;2.60;99.90
77865;DHT22;67061;48.524;9.040;2024-01-07T09:03:14;2.50;99.90
77865;DHT22;67061;48.524;9.040;2024-01-07T09:05:41;2.50;99.90
77865;DHT22;67061;48.524;9.040;2024-01-07T09:08:07;2.50;99.90
77865;DHT22;67061;48.524;9.040;2024-01-07T09:10:36;2.40;99.90
77865;DHT22;67061;48.524;9.040;2024-01-07T09:13:03;2.40;99.90
77865;DHT22;67061;48.524;9.040;2024-01-07T09:15:30;2.50;99.90
77865;DHT22;67061;48.524;9.040;2024-01-07T09:17:58;2.50;99.90
77865;DHT22;67061;48.524;9.040;2024-01-07T09:20:25;2.40;99.90
77865;DHT22;67061;48.524;9.040;2024-01-07T09:22:52;2.40;99.90
77865;DHT22;67061;48.524;9.040;2024-01-07T09:25:19;2.40;99.90
77865;DHT22;67061;48.524;9.040;2024-01-07T09:27:46;2.40;99.90
77865;DHT22;67061;48.524;9.040;2024-01-07T09:30:13;2.40;99.90
77865;DHT22;67061;48.524;9.040;2024-01-07T09:32:41;2.40;99.90
77865;DHT22;67061;48.524;9.040;2024-01-07T09:35:09;2.40;99.90
77865;DHT22;67061;48.524;9.040;2024-01-07T09:37:36;2.40;99.90
77865;DHT22;67061;48.524;9.040;2024-01-07T09:40:04;2.50;99.90
77865;DHT22;67061;48.524;9.040;2024-01-07T09:42:32;2.50;99.90
77865;DHT22;67061;48.524;9.040;2024-01-07T09:45:02;2.50;99.90
77865;DHT22;67061;48.524;9.040;2024-01-07T09:47:30;2.50;99.90
77865;DHT22;67061;48.524;9.040;2024-01-07T09:49:57;2.40;99.90
77865;DHT22;67061;48.524;9.040;2024-01-07T09:52:25;2.50;99.90
77865;DHT22;67061;48.524;9.040;2024-01-07T09:54:59;2.50;99.90
77865;DHT22;67061;48.524;9.040;2024-01-07T09:57:26;2.50;99.90
77865;DHT22;67061;48.524;9.040;2024-01-07T09:59:53;2.50;99.90
77865;DHT22;67061;48.524;9.040;2024-01-07T10:02:20;2.40;99.90
77865;DHT22;67061;48.524;9.040;2024-01-07T10:04:48;2.40;99.90
77865;DHT22;67061;48.524;9.040;2024-01-07T10:07:16;2.40;99.90
77865;DHT22;67061;48.524;9.040;2024-01-07T10:09:44;2.30;99.90
77865;DHT22;67061;48.524;9.040;2024-01-07T10:12:11;2.30;99.90
77865;DHT22;67061;48.524;9.040;2024-01-07T10:14:38;2.30;99.90
77865;DHT22;67061;48.524;9.040;2024-01-07T10:17:14;2.30;99.90
77865;DHT22;67061;48.524;9.040;2024-01-07T10:19:43;2.20;99.90
77865;DHT22;67061;48.524;9.040;2024-01-07T10:22:12;2.30;99.90
77865;DHT22;67061;48.524;9.040;2024-01-07T10:24:40;2.30;99.90
77865;DHT22;67061;48.524;9.040;2024-01-07T10:27:09;2.30;99.90
77865;DHT22;67061;48.524;9.040;2024-01-07T10:29:36;2.30;99.90
77865;DHT22;67061;48.524;9.040;2024-01-07T10:32:04;2.20;99.90
77865;DHT22;67061;48.524;9.040;2024-01-07T10:34:32;2.30;99.90
77865;DHT22;67061;48.524;9.040;2024-01-07T10:37:00;2.30;99.90
77865;DHT22;67061;48.524;9.040;2024-01-07T10:39:27;2.20;99.90
77865;DHT22;67061;48.524;9.040;2024-01-07T10:41:55;2.30;99.90
77865;DHT22;67061;48.524;9.040;2024-01-07T10:44:25;2.20;99.90
77865;DHT22;67061;48.524;9.040;2024-01-07T10:46:54;2.30;99.90
77865;DHT22;67061;48.524;9.040;2024-01-07T10:49:23;2.20;99.90
77865;DHT22;67061;48.524;9.040;2024-01-07T10:52:03;2.20;99.90
77865;DHT22;67061;48.524;9.040;2024-01-07T10:54:31;2.20;99.90
77865;DHT22;67061;48.524;9.040;2024-01-07T10:57:02;2.20;99.90
77865;DHT22;67061;48.524;9.040;2024-01-07T10:59:32;2.20;99.90
77865;DHT22;67061;48.524;9.040;2024-01-07T11:02:00;2.20;99.90
77865;DHT22;67061;48.524;9.040;2024-01-07T11:04:33;2.20;99.90
77865;DHT22;67061;48.524;9.040;2024-01-07T11:09:54;2.30;99.90
77865;DHT22;67061;48.524;9.040;2024-01-07T11:12:23;2.20;99.90
77865;DHT22;67061;48.524;9.040;2024-01-07T11:14:51;2.20;99.90
77865;DHT22;67061;48.524;9.040;2024-01-07T11:17:40;2.10;99.90
77865;DHT22;67061;48.524;9.040;2024-01-07T11:20:17;2.10;99.90
77865;DHT22;67061;48.524;9.040;2024-01-07T11:22:44;2.10;99.90
77865;DHT22;67061;48.524;9.040;2024-01-07T11:25:28;2.00;99.90
77865;DHT22;67061;48.524;9.040;2024-01-07T11:27:56;2.00;99.90
77865;DHT22;67061;48.524;9.040;2024-01-07T11:30:24;1.90;99.90
77865;DHT22;67061;48.524;9.040;2024-01-07T11:32:57;1.80;99.90
77865;DHT22;67061;48.524;9.040;2024-01-07T11:35:54;1.80;99.90
77865;DHT22;67061;48.524;9.040;2024-01-07T11:38:22;1.80;99.90
77865;DHT22;67061;48.524;9.040;2024-01-07T11:40:50;1.80;99.90
77865;DHT22;67061;48.524;9.040;2024-01-07T11:43:17;1.80;99.90
77865;DHT22;67061;48.524;9.040;2024-01-07T11:45:46;1.70;99.90
77865;DHT22;67061;48.524;9.040;2024-01-07T11:48:13;1.70;99.90
77865;DHT22;67061;48.524;9.040;2024-01-07T11:50:39;1.70;99.90
77865;DHT22;67061;48.524;9.040;2024-01-07T11:53:07;1.70;99.90
77865;DHT22;67061;48.524;9.040;2024-01-07T11:55:35;1.70;99.90
77865;DHT22;67061;48.524;9.040;2024-01-07T11:58:02;1.70;99.90
77865;DHT22;67061;48.524;9.040;2024-01-07T12:00:31;1.70;99.90
77865;DHT22;67061;48.524;9.040;2024-01-07T12:03:00;1.70;99.90
77865;DHT22;67061;48.524;9.040;2024-01-07T12:05:27;1.70;99.90
77865;DHT22;67061;48.524;9.040;2024-01-07T12:07:55;1.60;99.90
77865;DHT22;67061;48.524;9.040;2024-01-07T12:10:22;1.60;99.90
77865;DHT22;67061;48.524;9.040;2024-01-07T12:12:50;1.50;99.90
77865;DHT22;67061;48.524;9.040;2024-01-07T12:15:17;1.60;99.90
77865;DHT22;67061;48.524;9.040;2024-01-07T12:17:55;1.60;99.90
77865;DHT22;67061;48.524;9.040;2024-01-07T12:20:25;1.60;99.90
77865;DHT22;67061;48.524;9.040;2024-01-07T12:22:52;1.60;99.90
77865;DHT22;67061;48.524;9.040;2024-01-07T12:25:22;1.60;99.90
77865;DHT22;67061;48.524;9.040;2024-01-07T12:27:50;1.60;99.90
77865;DHT22;67061;48.524;9.040;2024-01-07T12:30:19;1.60;99.90
77865;DHT22;67061;48.524;9.040;2024-01-07T12:32:46;1.60;99.90
77865;DHT22;67061;48.524;9.040;2024-01-07T12:35:14;1.60;99.90
77865;DHT22;67061;48.524;9.040;2024-01-07T12:37:42;1.60;99.90
77865;DHT22;67061;48.524;9.040;2024-01-07T12:40:10;1.60;99.90
77865;DHT22;67061;48.524;9.040;2024-01-07T12:42:38;1.60;99.90
77865;DHT22;67061;48.524;9.040;2024-01-07T12:45:10;1.60;99.90
77865;DHT22;67061;48.524;9.040;2024-01-07T12:47:37;1.60;99.90
77865;DHT22;67061;48.524;9.040;2024-01-07T12:50:05;1.60;99.90
77865;DHT22;67061;48.524;9.040;2024-01-07T12:52:31;1.60;99.90
77865;DHT22;67061;48.524;9.040;2024-01-07T12:55:00;1.60;99.90
77865;DHT22;67061;48.524;9.040;2024-01-07T12:57:27;1.60;99.90
77865;DHT22;67061;48.524;9.040;2024-01-07T12:59:54;1.50;99.90
77865;DHT22;67061;48.524;9.040;2024-01-07T13:02:21;1.50;99.90
77865;DHT22;67061;48.524;9.040;2024-01-07T13:04:47;1.50;99.90
77865;DHT22;67061;48.524;9.040;2024-01-07T13:07:14;1.50;99.90
77865;DHT22;67061;48.524;9.040;2024-01-07T13:09:41;1.50;99.90
77865;DHT22;67061;48.524;9.040;2024-01-07T13:12:12;1.60;99.90
77865;DHT22;67061;48.524;9.040;2024-01-07T13:14:39;1.50;99.90
77865;DHT22;67061;48.524;9.040;2024-01-07T13:17:08;1.40;99.90
77865;DHT22;67061;48.524;9.040;2024-01-07T13:19:35;1.40;99.90
77865;DHT22;67061;48.524;9.040;2024-01-07T13:22:02;1.40;99.90
77865;DHT22;67061;48.524;9.040;2024-01-07T13:24:29;1.40;99.90
77865;DHT22;67061;48.524;9.040;2024-01-07T13:26:56;1.40;99.90
77865;DHT22;67061;48.524;9.040;2024-01-07T13:29:25;1.40;99.90
77865;DHT22;67061;48.524;9.040;2024-01-07T13:31:51;1.40;99.90
77865;DHT22;67061;48.524;9.040;2024-01-07T13:34:18;1.30;99.90
77865;DHT22;67061;48.524;9.040;2024-01-07T13:36:45;1.40;99.90
77865;DHT22;67061;48.524;9.040;2024-01-07T13:39:12;1.40;99.90
77865;DHT22;67061;48.524;9.040;2024-01-07T13:41:41;1.30;99.90
77865;DHT22;67061;48.524;9.040;2024-01-07T13:44:08;1.10;99.90
77865;DHT22;67061;48.524;9.040;2024-01-07T13:46:44;1.20;99.90
77865;DHT22;67061;48.524;9.040;2024-01-07T13:49:12;1.20;99.90
77865;DHT22;67061;48.524;9.040;2024-01-07T13:51:40;1.20;99.90
77865;DHT22;67061;48.524;9.040;2024-01-07T13:54:07;1.20;99.90
77865;DHT22;67061;48.524;9.040;2024-01-07T13:56:36;1.20;99.90
77865;DHT22;67061;48.524;9.040;2024-01-07T13:59:03;1.10;99.90
77865;DHT22;67061;48.524;9.040;2024-01-07T14:01:31;1.00;99.90
77865;DHT22;67061;48.524;9.040;2024-01-07T14:03:59;1.00;99.90
77865;DHT22;67061;48.524;9.040;2024-01-07T14:06:26;1.00;99.90
77865;DHT22;67061;48.524;9.040;2024-01-07T14:08:53;1.00;99.90
77865;DHT22;67061;48.524;9.040;2024-01-07T14:11:20;0.80;99.90
77865;DHT22;67061;48.524;9.040;2024-01-07T14:13:47;0.80;99.90
77865;DHT22;67061;48.524;9.040;2024-01-07T14:16:14;0.80;99.90
77865;DHT22;67061;48.524;9.040;2024-01-07T14:18:41;0.80;99.90
77865;DHT22;67061;48.524;9.040;2024-01-07T14:21:09;0.90;99.90
77865;DHT22;67061;48.524;9.040;2024-01-07T14:23:36;0.80;99.90
77865;DHT22;67061;48.524;9.040;2024-01-07T14:26:03;0.80;99.90
77865;DHT22;67061;48.524;9.040;2024-01-07T14:28:30;0.80;99.90
77865;DHT22;67061;48.524;9.040;2024-01-07T14:30:57;0.70;99.90
77865;DHT22;67061;48.524;9.040;2024-01-07T14:33:24;0.70;99.90
77865;DHT22;67061;48.524;9.040;2024-01-07T14:35:50;0.80;99.90
77865;DHT22;67061;48.524;9.040;2024-01-07T14:38:19;0.60;99.90
77865;DHT22;67061;48.524;9.040;2024-01-07T14:40:46;0.60;99.90
77865;DHT22;67061;48.524;9.040;2024-01-07T14:43:13;0.70;99.90
77865;DHT22;67061;48.524;9.040;2024-01-07T14:45:40;0.60;99.90
77865;DHT22;67061;48.524;9.040;2024-01-07T14:48:07;0.50;99.90
77865;DHT22;67061;48.524;9.040;2024-01-07T14:50:34;0.50;99.90
77865;DHT22;67061;48.524;9.040;2024-01-07T14:53:01;0.50;99.90
77865;DHT22;67061;48.524;9.040;2024-01-07T14:55:29;0.40;99.90
77865;DHT22;67061;48.524;9.040;2024-01-07T14:57:56;0.40;99.90
77865;DHT22;67061;48.524;9.040;2024-01-07T15:00:23;0.30;99.90
77865;DHT22;67061;48.524;9.040;2024-01-07T15:02:50;0.30;99.90
77865;DHT22;67061;48.524;9.040;2024-01-07T15:05:17;0.30;99.90
77865;DHT22;67061;48.524;9.040;2024-01-07T15:07:44;0.10;99.90
77865;DHT22;67061;48.524;9.040;2024-01-07T15:10:15;0.10;99.90
77865;DHT22;67061;48.524;9.040;2024-01-07T15:12:45;0.00;99.90
77865;DHT22;67061;48.524;9.040;2024-01-07T15:15:14;0.10;99.90
77865;DHT22;67061;48.524;9.040;2024-01-07T15:17:41;0.10;99.90
77865;DHT22;67061;48.524;9.040;2024-01-07T15:20:08;0.00;99.90
77865;DHT22;67061;48.524;9.040;2024-01-07T15:22:35;0.00;99.90
77865;DHT22;67061;48.524;9.040;2024-01-07T15:25:03;0.00;99.90
77865;DHT22;67061;48.524;9.040;2024-01-07T15:27:30;0.00;99.90
77865;DHT22;67061;48.524;9.040;2024-01-07T15:29:58;0.00;99.90
77865;DHT22;67061;48.524;9.040;2024-01-07T15:32:25;0.00;99.90
77865;DHT22;67061;48.524;9.040;2024-01-07T15:34:53;0.00;99.90
77865;DHT22;67061;48.524;9.040;2024-01-07T15:37:20;-0.10;99.90
77865;DHT22;67061;48.524;9.040;2024-01-07T15:39:47;-0.10;99.90
77865;DHT22;67061;48.524;9.040;2024-01-07T15:42:14;-0.10;99.90
77865;DHT22;67061;48.524;9.040;2024-01-07T15:44:41;-0.10;99.90
77865;DHT22;67061;48.524;9.040;2024-01-07T15:47:10;-0.10;99.90
77865;DHT22;67061;48.524;9.040;2024-01-07T15:49:37;-0.10;99.90